createdAt,value
2019-06-07T00:00:00.097Z,93
2019-06-07T00:05:00.151Z,93
2019-06-07T00:10:00.097Z,93
2019-06-07T00:15:00.126Z,93
2019-06-07T00:20:00.105Z,93
2019-06-07T00:25:00.112Z,93
2019-06-07T00:30:00.112Z,93
2019-06-07T00:35:00.120Z,93
2019-06-07T00:40:13.819Z,93
2019-06-07T00:45:00.112Z,92
2019-06-07T00:50:00.114Z,92
2019-06-07T00:55:00.076Z,92
2019-06-07T01:00:00.117Z,92
2019-06-07T01:05:00.105Z,92
2019-06-07T01:10:00.110Z,92
2019-06-07T01:15:00.218Z,92
2019-06-07T01:20:00.100Z,92
2019-06-07T01:25:00.110Z,92
2019-06-07T01:30:00.104Z,92
2019-06-07T01:35:00.124Z,92
2019-06-07T01:40:00.143Z,92
2019-06-07T01:45:00.175Z,92
2019-06-07T01:50:00.107Z,92
2019-06-07T01:55:00.165Z,92
2019-06-07T02:00:00.138Z,92
2019-06-07T02:05:00.103Z,92
2019-06-07T02:10:00.075Z,92
2019-06-07T02:15:00.134Z,92
2019-06-07T02:20:00.126Z,92
2019-06-07T02:25:34.367Z,92
2019-06-07T02:30:00.211Z,92
2019-06-07T02:35:00.073Z,93
2019-06-07T02:40:00.125Z,93
2019-06-07T02:45:00.081Z,93
2019-06-07T02:50:00.104Z,93
2019-06-07T02:55:00.121Z,93
2019-06-07T03:00:07.481Z,93
2019-06-07T03:05:00.115Z,93
2019-06-07T03:10:00.103Z,93
2019-06-07T03:15:00.101Z,93
2019-06-07T03:20:00.146Z,93
2019-06-07T03:25:00.133Z,93
2019-06-07T03:30:00.084Z,93
2019-06-07T03:35:00.103Z,93
2019-06-07T03:40:00.107Z,93
2019-06-07T03:45:00.122Z,93
2019-06-07T03:50:00.111Z,93
2019-06-07T03:55:00.113Z,93
2019-06-07T04:00:00.116Z,93
2019-06-07T04:05:00.106Z,93
2019-06-07T04:10:00.128Z,93
2019-06-07T04:15:00.106Z,93
2019-06-07T04:20:00.119Z,93
2019-06-07T04:25:00.115Z,93
2019-06-07T04:30:07.013Z,93
2019-06-07T04:35:00.110Z,93
2019-06-07T04:40:00.133Z,93
2019-06-07T04:45:00.106Z,93
2019-06-07T04:50:00.111Z,93
2019-06-07T04:55:00.109Z,93
2019-06-07T05:00:12.603Z,93
2019-06-07T05:05:00.104Z,93
2019-06-07T05:10:00.100Z,93
2019-06-07T05:15:00.073Z,93
2019-06-07T05:20:00.115Z,93
2019-06-07T05:25:00.123Z,93
2019-06-07T05:30:09.378Z,94
2019-06-07T05:35:00.132Z,94
2019-06-07T05:40:00.116Z,95
2019-06-07T05:45:00.121Z,95
2019-06-07T05:50:00.117Z,95
2019-06-07T05:55:00.110Z,95
2019-06-07T06:00:00.116Z,95
2019-06-07T06:05:00.121Z,95
2019-06-07T06:10:00.075Z,95
2019-06-07T06:15:00.109Z,95
2019-06-07T06:20:00.115Z,92
2019-06-07T06:25:30.462Z,85
2019-06-07T06:30:00.134Z,72
2019-06-07T06:35:00.109Z,53
2019-06-07T06:40:00.111Z,47
2019-06-07T06:45:00.121Z,47
2019-06-07T06:50:00.122Z,44
2019-06-07T06:55:01.157Z,39
2019-06-07T07:00:00.101Z,35
2019-06-07T07:05:00.073Z,37
2019-06-07T07:10:00.281Z,40
2019-06-07T07:15:00.119Z,40
2019-06-07T07:20:00.124Z,39
2019-06-07T07:25:00.101Z,42
2019-06-07T07:30:34.607Z,44
2019-06-07T07:35:00.777Z,45
2019-06-07T07:40:09.395Z,47
2019-06-07T07:45:00.115Z,49
2019-06-07T07:50:00.125Z,48
2019-06-07T07:55:00.121Z,49
2019-06-07T08:00:25.513Z,49
2019-06-07T08:05:20.858Z,46
2019-06-07T08:10:03.783Z,43
2019-06-07T08:15:03.210Z,40
2019-06-07T08:20:02.783Z,36
2019-06-07T08:25:04.079Z,29
2019-06-07T08:30:25.626Z,30
2019-06-07T08:35:05.769Z,33
2019-06-07T08:40:01.785Z,34
2019-06-07T08:45:03.515Z,37
2019-06-07T08:50:06.253Z,40
2019-06-07T08:55:04.443Z,42
2019-06-07T09:00:07.016Z,44
2019-06-07T09:05:06.706Z,45
2019-06-07T09:10:08.253Z,45
2019-06-07T09:15:14.448Z,45
2019-06-07T09:20:06.282Z,45
2019-06-07T09:25:02.667Z,46
2019-06-07T09:30:03.083Z,46
2019-06-07T09:35:05.257Z,41
2019-06-07T09:40:10.181Z,37
2019-06-07T09:45:01.070Z,37
2019-06-07T09:50:05.861Z,35
2019-06-07T09:55:10.452Z,34
2019-06-07T10:00:02.522Z,34
2019-06-07T10:05:02.197Z,32
2019-06-07T10:15:00.610Z,33
2019-06-07T10:20:02.021Z,34
2019-06-07T10:25:00.150Z,35
2019-06-07T10:30:00.325Z,37
2019-06-07T10:35:00.489Z,42
2019-06-07T10:40:00.590Z,46
2019-06-07T10:45:02.310Z,47
2019-06-07T10:50:00.117Z,48
2019-06-07T10:55:00.073Z,47
2019-06-07T11:00:00.122Z,47
2019-06-07T11:05:00.127Z,47
2019-06-07T11:10:06.831Z,46
2019-06-07T11:15:00.078Z,46
2019-06-07T11:20:00.147Z,47
2019-06-07T11:25:00.209Z,46
2019-06-07T11:30:00.115Z,46
2019-06-07T11:35:00.090Z,46
2019-06-07T11:40:00.120Z,47
2019-06-07T11:45:00.122Z,49
2019-06-07T11:50:00.110Z,50
2019-06-07T11:55:00.120Z,50
2019-06-07T12:00:00.122Z,49
2019-06-07T12:05:00.115Z,48
2019-06-07T12:10:00.111Z,47
2019-06-07T12:15:00.074Z,47
2019-06-07T12:20:00.116Z,48
2019-06-07T12:25:00.123Z,49
2019-06-07T12:30:00.107Z,49
2019-06-07T12:35:00.073Z,50
2019-06-07T12:40:00.118Z,50
2019-06-07T12:45:00.105Z,49
2019-06-07T12:50:00.146Z,49
2019-06-07T12:55:00.108Z,48
2019-06-07T13:00:00.104Z,50
2019-06-07T13:05:04.258Z,52
2019-06-07T13:10:00.106Z,52
2019-06-07T13:15:00.117Z,50
2019-06-07T13:20:00.116Z,51
2019-06-07T13:25:00.084Z,53
2019-06-07T13:30:00.115Z,52
2019-06-07T13:35:00.124Z,52
2019-06-07T13:40:00.125Z,52
2019-06-07T13:45:00.109Z,50
2019-06-07T13:50:00.080Z,51
2019-06-07T13:55:02.215Z,54
2019-06-07T14:00:00.116Z,55
2019-06-07T14:05:00.159Z,57
2019-06-07T14:10:00.114Z,58
2019-06-07T14:15:00.108Z,59
2019-06-07T14:20:00.127Z,59
2019-06-07T14:25:00.121Z,61
2019-06-07T14:30:00.115Z,61
2019-06-07T14:35:00.106Z,61
2019-06-07T14:40:00.118Z,62
2019-06-07T14:45:05.020Z,61
2019-06-07T14:50:00.109Z,61
2019-06-07T14:55:00.116Z,62
2019-06-07T15:00:00.085Z,63
2019-06-07T15:05:00.124Z,63
2019-06-07T15:10:00.117Z,64
2019-06-07T15:15:00.111Z,65
2019-06-07T15:20:00.103Z,66
2019-06-07T15:25:00.117Z,67
2019-06-07T15:30:00.117Z,68
2019-06-07T15:35:00.147Z,69
2019-06-07T15:40:00.113Z,69
2019-06-07T15:45:00.118Z,70
2019-06-07T15:50:00.076Z,71
2019-06-07T15:55:00.132Z,72
2019-06-07T16:00:00.120Z,73
2019-06-07T16:05:00.107Z,75
2019-06-07T16:10:00.103Z,75
2019-06-07T16:15:00.109Z,75
2019-06-07T16:20:00.139Z,76
2019-06-07T16:25:00.109Z,76
2019-06-07T16:30:00.124Z,76
2019-06-07T16:35:00.110Z,76
2019-06-07T16:40:00.076Z,76
2019-06-07T16:45:00.115Z,77
2019-06-07T16:50:00.102Z,77
2019-06-07T16:55:00.114Z,77
2019-06-07T17:00:00.112Z,77
2019-06-07T17:05:00.113Z,77
2019-06-07T17:10:00.101Z,76
2019-06-07T17:15:00.119Z,76
2019-06-07T17:20:00.119Z,75
2019-06-07T17:25:00.107Z,75
2019-06-07T17:30:00.104Z,74
2019-06-07T17:35:00.122Z,71
2019-06-07T17:40:00.109Z,71
2019-06-07T17:45:00.104Z,71
2019-06-07T17:50:00.118Z,72
2019-06-07T17:55:00.125Z,72
2019-06-07T18:00:00.118Z,73
2019-06-07T18:05:00.122Z,74
2019-06-07T18:10:00.112Z,74
2019-06-07T18:15:00.110Z,74
2019-06-07T18:20:00.113Z,74
2019-06-07T18:25:00.106Z,75
2019-06-07T18:30:00.099Z,76
2019-06-07T18:35:00.392Z,76
2019-06-07T18:40:00.401Z,77
2019-06-07T18:45:00.107Z,78
2019-06-07T18:50:00.125Z,79
2019-06-07T18:55:00.119Z,81
2019-06-07T19:00:00.114Z,82
2019-06-07T19:05:00.129Z,84
2019-06-07T19:10:00.120Z,86
2019-06-07T19:15:00.128Z,88
2019-06-07T19:20:00.625Z,89
2019-06-07T19:25:00.537Z,92
2019-06-07T19:30:01.007Z,94
2019-06-07T19:35:00.114Z,95
2019-06-07T19:40:00.169Z,95
2019-06-07T19:45:24.286Z,95
2019-06-07T19:50:00.897Z,95
2019-06-07T19:55:01.390Z,95
2019-06-07T20:00:00.113Z,95
2019-06-07T20:05:03.671Z,95
2019-06-07T20:10:00.641Z,95
2019-06-07T20:15:18.407Z,95
2019-06-07T20:20:00.462Z,95
2019-06-07T20:25:00.811Z,95
2019-06-07T20:30:00.207Z,95
2019-06-07T20:35:00.087Z,95
2019-06-07T20:40:07.040Z,95
2019-06-07T20:45:00.107Z,95
2019-06-07T20:50:00.159Z,95
2019-06-07T20:55:00.532Z,95
2019-06-07T21:00:00.928Z,95
2019-06-07T21:05:01.088Z,95
2019-06-07T21:10:01.587Z,95
2019-06-07T21:15:04.144Z,95
2019-06-07T21:20:00.501Z,95
2019-06-07T21:25:00.651Z,95
2019-06-07T21:30:01.011Z,95
2019-06-07T21:35:00.118Z,95
2019-06-07T21:40:00.112Z,95
2019-06-07T21:45:00.124Z,95
2019-06-07T21:50:00.079Z,95
2019-06-07T21:55:00.103Z,95
2019-06-07T22:00:00.111Z,95
2019-06-07T22:05:00.106Z,95
2019-06-07T22:10:00.121Z,95
2019-06-07T22:15:00.082Z,95
2019-06-07T22:20:00.109Z,95
2019-06-07T22:25:00.118Z,95
2019-06-07T22:30:00.104Z,95
2019-06-07T22:35:00.144Z,95
2019-06-07T22:40:00.128Z,95
2019-06-07T22:45:00.148Z,95
2019-06-07T22:50:00.117Z,95
2019-06-07T22:55:00.104Z,95
2019-06-07T23:00:00.111Z,95
2019-06-07T23:05:04.543Z,95
2019-06-07T23:10:00.075Z,95
2019-06-07T23:15:00.067Z,95
2019-06-07T23:20:00.130Z,95
2019-06-07T23:25:00.126Z,95
2019-06-07T23:30:00.076Z,95
2019-06-07T23:35:00.101Z,95
2019-06-07T23:40:00.106Z,95
2019-06-07T23:45:00.118Z,94
2019-06-07T23:50:00.109Z,94
2019-06-07T23:55:00.082Z,94
